METAR Data
IDs: Format: Raw Decoded Include TAF

Data at: 2059 UTC 18 Apr 2021

LLBG 182050Z VRB01KT CAVOK 23/14 Q1013 NOSIG